createdAt,value
2022-09-30T00:02:06.595Z,1.30
2022-09-30T00:07:08.656Z,1.30
2022-09-30T00:12:10.779Z,1.87
2022-09-30T00:17:12.937Z,1.52
2022-09-30T00:22:15.106Z,1.65
2022-09-30T00:27:18.194Z,1.45
2022-09-30T00:32:20.334Z,0.85
2022-09-30T00:37:22.384Z,1.23
2022-09-30T00:42:27.119Z,1.47
2022-09-30T00:47:47.690Z,1.05
2022-09-30T00:53:08.303Z,1.40
2022-09-30T00:58:15.404Z,1.55
2022-09-30T01:03:19.025Z,1.50
2022-09-30T01:08:21.583Z,1.25
2022-09-30T01:13:27.339Z,1.00
2022-09-30T01:18:57.335Z,1.15
2022-09-30T01:24:23.987Z,1.10
2022-09-30T01:29:51.385Z,0.90
2022-09-30T01:35:20.846Z,1.30
2022-09-30T01:40:35.644Z,0.90
2022-09-30T01:45:46.615Z,1.00
2022-09-30T01:50:48.853Z,0.90
2022-09-30T01:56:05.771Z,1.20
2022-09-30T02:01:13.869Z,0.80
2022-09-30T02:06:21.778Z,1.00
2022-09-30T02:11:28.213Z,0.73
2022-09-30T02:16:41.916Z,0.85
2022-09-30T02:21:51.344Z,1.10
2022-09-30T02:26:57.176Z,0.70
2022-09-30T02:32:07.685Z,0.80
2022-09-30T02:37:25.261Z,0.80
2022-09-30T02:42:29.305Z,1.07
2022-09-30T02:47:55.471Z,0.80
2022-09-30T02:53:14.955Z,0.80
2022-09-30T02:58:21.311Z,0.97
2022-09-30T03:03:48.943Z,1.03
2022-09-30T03:08:53.002Z,1.23
2022-09-30T03:14:11.754Z,0.70
2022-09-30T03:19:51.508Z,0.73
2022-09-30T03:25:14.047Z,1.00
2022-09-30T03:30:24.499Z,1.05
2022-09-30T03:35:41.363Z,1.05
2022-09-30T03:41:01.943Z,1.23
2022-09-30T03:46:10.278Z,0.75
2022-09-30T03:51:13.703Z,1.00
2022-09-30T03:56:15.738Z,1.23
2022-09-30T04:01:21.170Z,0.90
2022-09-30T04:06:25.667Z,1.35
2022-09-30T04:11:27.721Z,0.60
2022-09-30T04:16:30.294Z,0.80
2022-09-30T04:21:32.417Z,0.60
2022-09-30T04:26:34.503Z,0.85
2022-09-30T04:31:36.631Z,0.60
2022-09-30T04:36:38.908Z,0.65
2022-09-30T04:41:41.209Z,1.00
2022-09-30T04:46:43.904Z,0.95
2022-09-30T04:51:46.382Z,1.17
2022-09-30T04:56:48.379Z,1.10
2022-09-30T05:01:50.477Z,1.60
2022-09-30T05:06:52.572Z,2.47
2022-09-30T05:11:54.690Z,3.97
2022-09-30T05:16:56.698Z,4.55
2022-09-30T05:21:58.759Z,3.93
2022-09-30T05:27:01.906Z,3.62
2022-09-30T05:32:03.945Z,3.97
2022-09-30T05:37:06.847Z,2.90
2022-09-30T05:47:16.350Z,3.30
2022-09-30T05:52:18.436Z,2.45
2022-09-30T05:57:20.946Z,3.00
2022-09-30T06:02:23.145Z,2.83
2022-09-30T06:07:25.361Z,2.15
2022-09-30T06:12:28.629Z,2.00
2022-09-30T06:17:30.713Z,1.93
2022-09-30T06:22:35.915Z,2.37
2022-09-30T06:27:38.288Z,2.80
2022-09-30T06:32:40.747Z,2.42
2022-09-30T06:37:44.665Z,3.08
2022-09-30T06:42:48.255Z,2.00
2022-09-30T06:47:59.878Z,2.25
2022-09-30T06:53:06.274Z,2.05
2022-09-30T06:58:13.826Z,1.25
2022-09-30T07:03:28.284Z,3.30
2022-09-30T07:08:32.581Z,2.35
2022-09-30T07:13:35.040Z,2.55
2022-09-30T07:18:37.207Z,2.45
2022-09-30T07:23:48.000Z,3.08
2022-09-30T07:28:52.076Z,2.85
2022-09-30T07:33:56.626Z,2.60
2022-09-30T07:38:58.662Z,2.25
2022-09-30T07:44:01.430Z,2.87
2022-09-30T07:54:17.323Z,3.13
2022-09-30T07:59:19.813Z,3.33
2022-09-30T08:04:23.774Z,3.17
2022-09-30T08:09:28.353Z,4.37
2022-09-30T08:14:30.774Z,3.67
2022-09-30T08:19:33.874Z,3.87
2022-09-30T08:24:36.047Z,4.43
2022-09-30T08:29:55.890Z,5.07
2022-09-30T08:34:58.928Z,5.00
2022-09-30T08:40:01.307Z,4.15
2022-09-30T08:45:35.059Z,4.50
2022-09-30T08:50:56.811Z,5.70
2022-09-30T08:56:02.482Z,4.15
2022-09-30T09:01:16.947Z,4.75
2022-09-30T09:06:55.261Z,4.55
2022-09-30T09:12:17.487Z,5.97
2022-09-30T09:18:18.258Z,4.60
2022-09-30T09:23:15.116Z,3.90
2022-09-30T09:28:27.919Z,4.22
2022-09-30T09:33:35.182Z,4.32
2022-09-30T09:38:50.037Z,5.18
2022-09-30T09:44:10.492Z,4.50
2022-09-30T09:49:20.766Z,4.78
2022-09-30T09:54:26.156Z,4.80
2022-09-30T09:59:28.724Z,4.75
2022-09-30T10:04:33.223Z,4.28
2022-09-30T10:09:38.377Z,4.40
2022-09-30T10:14:48.769Z,4.37
2022-09-30T10:19:54.424Z,4.00
2022-09-30T10:25:14.504Z,4.57
2022-09-30T10:30:40.564Z,4.65
2022-09-30T10:36:04.025Z,5.40
2022-09-30T10:41:06.351Z,3.62
2022-09-30T10:46:27.070Z,4.25
2022-09-30T10:51:34.880Z,3.55
2022-09-30T10:56:44.360Z,3.37
2022-09-30T11:01:55.105Z,3.50
2022-09-30T11:12:30.454Z,3.70
2022-09-30T11:17:50.239Z,2.33
2022-09-30T11:23:11.145Z,2.95
2022-09-30T11:28:37.381Z,2.22
2022-09-30T11:33:51.550Z,3.53
2022-09-30T11:38:53.542Z,2.05
2022-09-30T11:44:06.413Z,2.10
2022-09-30T11:49:27.240Z,2.58
2022-09-30T11:54:50.333Z,1.75
2022-09-30T12:00:01.128Z,1.98
2022-09-30T12:05:18.349Z,1.60
2022-09-30T12:10:28.945Z,2.00
2022-09-30T12:15:32.492Z,2.00
2022-09-30T12:20:49.200Z,1.80
2022-09-30T12:25:57.877Z,2.10
2022-09-30T12:31:16.716Z,2.65
2022-09-30T12:36:27.453Z,2.05
2022-09-30T12:42:08.122Z,2.80
2022-09-30T12:47:26.036Z,2.35
2022-09-30T12:52:33.873Z,2.20
2022-09-30T12:57:41.600Z,2.58
2022-09-30T13:02:48.749Z,2.60
2022-09-30T13:08:11.138Z,2.55
2022-09-30T13:13:13.157Z,3.20
2022-09-30T13:18:20.931Z,2.78
2022-09-30T13:23:36.554Z,2.67
2022-09-30T13:28:39.149Z,2.95
2022-09-30T13:34:04.313Z,2.58
2022-09-30T13:39:16.980Z,2.72
2022-09-30T13:44:49.067Z,2.47
2022-09-30T13:50:14.781Z,2.42
2022-09-30T13:55:33.745Z,1.98
2022-09-30T14:01:14.068Z,1.80
2022-09-30T14:06:38.277Z,1.20
2022-09-30T14:12:14.500Z,1.37
2022-09-30T14:17:19.329Z,1.50
2022-09-30T14:22:26.266Z,1.10
2022-09-30T14:27:28.343Z,1.67
2022-09-30T14:32:46.072Z,1.30
2022-09-30T14:37:59.011Z,1.55
2022-09-30T14:43:04.894Z,1.20
2022-09-30T14:48:15.907Z,1.45
2022-09-30T14:53:28.992Z,1.90
2022-09-30T14:58:42.197Z,1.40
2022-09-30T15:03:48.496Z,1.42
2022-09-30T15:08:59.643Z,1.20
2022-09-30T15:14:20.562Z,1.15
2022-09-30T15:19:36.878Z,1.50
2022-09-30T15:24:40.568Z,1.40
2022-09-30T15:30:00.472Z,1.50
2022-09-30T15:35:07.805Z,1.10
2022-09-30T15:40:37.741Z,2.55
2022-09-30T15:45:43.793Z,1.75
2022-09-30T15:50:48.829Z,1.35
2022-09-30T15:55:56.386Z,1.75
2022-09-30T16:01:24.872Z,2.05
2022-09-30T16:06:41.512Z,1.60
2022-09-30T16:11:53.824Z,1.90
2022-09-30T16:17:02.009Z,1.63
2022-09-30T16:22:04.113Z,1.37
2022-09-30T16:27:35.686Z,1.67
2022-09-30T16:32:41.755Z,1.33
2022-09-30T16:37:44.350Z,1.45
2022-09-30T16:42:46.590Z,1.40
2022-09-30T16:47:50.307Z,1.85
2022-09-30T16:52:52.511Z,1.27
2022-09-30T16:57:58.990Z,1.85
2022-09-30T17:03:01.051Z,1.40
2022-09-30T17:08:03.063Z,3.27
2022-09-30T17:13:05.190Z,6.15
2022-09-30T17:18:09.191Z,6.23
2022-09-30T17:23:12.253Z,3.53
2022-09-30T17:28:15.096Z,3.15
2022-09-30T17:38:20.709Z,2.75
2022-09-30T17:43:23.047Z,5.70
2022-09-30T17:48:25.227Z,6.65
2022-09-30T17:53:29.251Z,4.60
2022-09-30T17:58:31.422Z,4.40
2022-09-30T18:03:33.599Z,4.13
2022-09-30T18:08:35.748Z,4.72
2022-09-30T18:13:37.795Z,4.00
2022-09-30T18:18:39.833Z,2.23
2022-09-30T18:23:42.029Z,4.37
2022-09-30T18:28:44.516Z,6.80
2022-09-30T18:33:51.594Z,5.47
2022-09-30T18:38:53.917Z,6.22
2022-09-30T18:44:02.113Z,5.67
2022-09-30T18:49:04.406Z,5.53
2022-09-30T18:54:07.569Z,4.43
2022-09-30T18:59:18.026Z,5.37
2022-09-30T19:04:22.771Z,5.50
2022-09-30T19:09:26.530Z,6.10
2022-09-30T19:14:30.532Z,5.97
2022-09-30T19:19:40.895Z,5.20
2022-09-30T19:24:43.062Z,4.30
2022-09-30T19:29:45.161Z,3.90
2022-09-30T19:34:56.288Z,3.47
2022-09-30T19:40:15.313Z,3.43
2022-09-30T19:45:25.957Z,2.60
2022-09-30T19:50:28.401Z,3.00
2022-09-30T19:55:35.453Z,2.87
2022-09-30T20:00:41.911Z,2.40
2022-09-30T20:05:44.076Z,1.95
2022-09-30T20:10:46.147Z,2.80
2022-09-30T20:15:51.257Z,1.50
2022-09-30T20:20:54.629Z,1.20
2022-09-30T20:25:56.827Z,1.95
2022-09-30T20:30:58.879Z,2.00
2022-09-30T20:36:01.483Z,2.53
2022-09-30T20:41:03.973Z,2.78
2022-09-30T20:46:08.224Z,13.65
2022-09-30T20:51:12.446Z,13.53
2022-09-30T20:56:15.179Z,10.20
2022-09-30T21:01:19.101Z,5.12
2022-09-30T21:06:25.393Z,4.50
2022-09-30T21:11:27.408Z,6.50
2022-09-30T21:16:29.603Z,5.23
2022-09-30T21:21:32.176Z,4.35
2022-09-30T21:26:35.491Z,3.62
2022-09-30T21:31:38.156Z,2.90
2022-09-30T21:41:42.867Z,3.05
2022-09-30T21:46:48.565Z,2.53
2022-09-30T21:51:53.315Z,2.10
2022-09-30T21:56:55.369Z,2.40
2022-09-30T22:01:57.704Z,2.43
2022-09-30T22:06:59.841Z,2.50
2022-09-30T22:12:08.789Z,2.10
2022-09-30T22:17:10.941Z,3.80
2022-09-30T22:22:13.021Z,2.13
2022-09-30T22:27:15.012Z,3.00
2022-09-30T22:32:17.094Z,2.97
2022-09-30T22:37:37.886Z,2.80
2022-09-30T22:42:39.860Z,2.93
2022-09-30T22:47:41.898Z,3.07
2022-09-30T22:52:43.935Z,2.97
2022-09-30T22:57:45.997Z,3.80
2022-09-30T23:02:52.698Z,3.20
2022-09-30T23:07:54.713Z,3.23
2022-09-30T23:12:56.738Z,3.40
2022-09-30T23:17:58.783Z,3.50
2022-09-30T23:23:00.948Z,3.37
2022-09-30T23:28:03.076Z,2.42
2022-09-30T23:33:08.869Z,2.97
2022-09-30T23:38:10.859Z,3.13
2022-09-30T23:43:13.105Z,3.07
2022-09-30T23:48:15.174Z,3.70
2022-09-30T23:53:22.030Z,2.50
2022-09-30T23:58:25.129Z,2.80
